EEPU

Pärnu Airport

Pärnu, Estonia
METAR EEPU 191250Z 07004KT 030V100 8000 NSC M00/M02 Q1004
Observed Flight Rules
Jan-19 @ 12:50 UTC (3 hours ago) Marginal Visual Flight Rules
Wind Visibility Clouds
70° at 4 knots 7,998 meters
  • Clear skies
Temperatures Readings
Current 0°C / 32°F
Dewpoint -2°C / 28°F
Humidity 87%
Altimeter 29.65" Hg
Pressure 1004 hPa
Elevation 14
METAR EEPU 191250Z 07004KT 030V100 8000 NSC M00/M02 Q1004
Observed Flight Rules
Jan-19 @ 12:50 UTC
(3 hours ago)
MVFR
Wind Visibility
70° at 4 knots 7,998 meters
Clouds
  • Clear skies
Temperature Dewpoint
0°C / 32°F -2°C / 28°F
Humidity Altimeter Pressure
87% 29.65" Hg 1004 hPa